createdAt,value
2024-02-24T00:03:22.777Z,11.9
2024-02-24T00:08:47.452Z,11.9
2024-02-24T00:14:26.207Z,12
2024-02-24T00:20:05.438Z,12.1
2024-02-24T00:25:45.012Z,12.1
2024-02-24T00:31:23.888Z,12.2
2024-02-24T00:37:03.554Z,12.3
2024-02-24T00:42:26.803Z,12.3
2024-02-24T00:48:05.958Z,12.3
2024-02-24T00:53:45.007Z,12.2
2024-02-24T00:59:08.175Z,12.3
2024-02-24T01:04:47.448Z,12.2
2024-02-24T01:10:26.374Z,12.2
2024-02-24T01:15:49.992Z,12.1
2024-02-24T01:21:29.859Z,12.1
2024-02-24T01:27:08.472Z,12.1
2024-02-24T01:32:47.022Z,12.1
2024-02-24T01:38:26.266Z,12.1
2024-02-24T01:44:04.697Z,12
2024-02-24T01:49:44.165Z,11.9
2024-02-24T01:55:22.230Z,11.9
2024-02-24T02:01:01.280Z,11.9
2024-02-24T02:06:25.316Z,11.9
2024-02-24T02:12:04.506Z,11.9
2024-02-24T02:17:28.414Z,11.8
2024-02-24T02:22:37.115Z,11.8
2024-02-24T02:27:44.710Z,11.8
2024-02-24T02:33:24.885Z,11.7
2024-02-24T02:39:04.721Z,11.3
2024-02-24T02:44:43.252Z,11.1
2024-02-24T02:50:31.206Z,10.8
2024-02-24T02:56:10.213Z,10.4
2024-02-24T03:01:49.312Z,10.3
2024-02-24T03:07:13.211Z,10
2024-02-24T03:12:24.874Z,9.8
2024-02-24T03:17:32.394Z,9.8
2024-02-24T03:23:11.740Z,9.6
2024-02-24T03:28:50.162Z,9.4
2024-02-24T03:34:29.856Z,9.6
2024-02-24T03:40:08.379Z,9.4
2024-02-24T03:45:46.818Z,9.2
2024-02-24T03:50:55.936Z,9
2024-02-24T03:56:34.642Z,8.8
2024-02-24T04:02:13.358Z,8.6
2024-02-24T04:07:52.468Z,8.4
2024-02-24T04:13:32.128Z,8.3
2024-02-24T04:19:11.870Z,8.3
2024-02-24T04:24:50.346Z,8.4
2024-02-24T04:30:29.071Z,8.3
2024-02-24T04:36:09.014Z,8.3
2024-02-24T04:41:47.752Z,8.1
2024-02-24T04:47:10.834Z,7.9
2024-02-24T04:52:35.026Z,7.7
2024-02-24T04:57:58.104Z,7.5
2024-02-24T05:03:21.386Z,7.4
2024-02-24T05:08:45.143Z,7.3
2024-02-24T05:14:08.750Z,7.2
2024-02-24T05:19:33.574Z,7.1
2024-02-24T05:24:40.977Z,7.1
2024-02-24T05:30:06.592Z,7.1
2024-02-24T05:35:34.923Z,7.2
2024-02-24T05:41:00.205Z,7.4
2024-02-24T05:46:22.734Z,7.8
2024-02-24T05:51:46.602Z,8.1
2024-02-24T05:57:27.917Z,8.4
2024-02-24T06:03:06.582Z,8.8
2024-02-24T06:08:46.348Z,9.1
2024-02-24T06:14:25.237Z,9.4
2024-02-24T06:20:04.338Z,10.3
2024-02-24T06:31:08.524Z,23.4
2024-02-24T06:36:48.199Z,28.3
2024-02-24T06:42:38.735Z,33.4
2024-02-24T06:48:33.438Z,38.3
2024-02-24T06:53:57.037Z,43.8
2024-02-24T06:59:38.410Z,43.4
2024-02-24T07:05:17.319Z,36.1
2024-02-24T07:10:56.381Z,33.1
2024-02-24T07:16:36.040Z,34.9
2024-02-24T07:22:16.752Z,35.2
2024-02-24T07:27:59.089Z,34.4
2024-02-24T07:33:39.439Z,33.2
2024-02-24T07:38:50.081Z,32.3
2024-02-24T07:44:28.477Z,31.4
2024-02-24T07:49:52.094Z,32.8
2024-02-24T07:55:30.810Z,35.3
2024-02-24T08:01:10.927Z,45.8
2024-02-24T08:06:50.392Z,48.8
2024-02-24T08:12:30.923Z,44.9
2024-02-24T08:17:54.464Z,41.3
2024-02-24T08:23:18.086Z,42.7
2024-02-24T08:28:56.718Z,43.7
2024-02-24T08:34:35.945Z,40.7
2024-02-24T08:39:59.983Z,38.1
2024-02-24T08:45:23.233Z,34.8
2024-02-24T08:51:02.401Z,34.6
2024-02-24T08:56:54.858Z,36.1
2024-02-24T09:02:33.331Z,35.4
2024-02-24T09:08:15.584Z,33.9
2024-02-24T09:13:54.492Z,41.6
2024-02-24T09:19:34.111Z,48.4
2024-02-24T09:24:57.514Z,50.4
2024-02-24T09:30:36.277Z,51.3
2024-02-24T09:36:15.806Z,51.1
2024-02-24T09:41:55.177Z,50.4
2024-02-24T09:47:17.996Z,50.1
2024-02-24T09:52:59.647Z,47.6
2024-02-24T09:58:37.964Z,47.8
2024-02-24T10:04:01.510Z,47.5
2024-02-24T10:09:44.664Z,46.4
2024-02-24T10:15:08.990Z,44.9
2024-02-24T10:20:17.543Z,43.9
2024-02-24T10:25:43.206Z,41.8
2024-02-24T10:31:23.310Z,40.8
2024-02-24T10:37:05.427Z,40.3
2024-02-24T10:43:16.085Z,41.1
2024-02-24T10:49:08.669Z,41.9
2024-02-24T10:54:48.691Z,41.3
2024-02-24T11:00:12.657Z,40.9
2024-02-24T11:05:52.022Z,40
2024-02-24T11:11:16.747Z,39
2024-02-24T11:17:06.103Z,37.9
2024-02-24T11:22:34.210Z,37
2024-02-24T11:28:12.882Z,35.9
2024-02-24T11:33:52.278Z,35.1
2024-02-24T11:39:31.880Z,34.1
2024-02-24T11:45:11.372Z,33.3
2024-02-24T11:50:51.781Z,32.6
2024-02-24T11:56:33.105Z,31.9
2024-02-24T12:02:11.896Z,31
2024-02-24T12:07:20.663Z,30.3
2024-02-24T12:13:02.900Z,29.5
2024-02-24T12:18:41.707Z,28.8
2024-02-24T12:24:22.191Z,28.3
2024-02-24T12:30:00.672Z,28
2024-02-24T12:35:40.548Z,27.9
2024-02-24T12:41:19.147Z,27.7
2024-02-24T12:46:58.122Z,27.3
2024-02-24T12:52:46.521Z,27
2024-02-24T12:58:25.238Z,26.8
2024-02-24T13:04:07.127Z,26.4
2024-02-24T13:09:46.959Z,26.1
2024-02-24T13:15:26.346Z,25.9
2024-02-24T13:20:50.389Z,25.6
2024-02-24T13:26:31.852Z,25.2
2024-02-24T13:31:55.008Z,25
2024-02-24T13:37:35.047Z,24.7
2024-02-24T13:43:13.103Z,24.6
2024-02-24T13:48:52.969Z,24.3
2024-02-24T13:54:32.197Z,24.3
2024-02-24T14:00:11.647Z,24.2
2024-02-24T14:05:51.839Z,24.1
2024-02-24T14:11:31.412Z,23.8
2024-02-24T14:17:13.588Z,23.6
2024-02-24T14:23:05.588Z,23.3
2024-02-24T14:28:50.481Z,22.9
2024-02-24T14:34:39.848Z,22.6
2024-02-24T14:40:21.982Z,22.2
2024-02-24T14:46:00.942Z,21.8
2024-02-24T14:51:40.405Z,21.4
2024-02-24T15:02:40.747Z,20.9
2024-02-24T15:08:19.314Z,20.9
2024-02-24T15:14:05.403Z,20.7
2024-02-24T15:19:29.709Z,20.4
2024-02-24T15:25:10.415Z,20.1
2024-02-24T15:30:53.545Z,19.7
2024-02-24T15:36:33.414Z,19.3
2024-02-24T15:42:11.683Z,18.9
2024-02-24T15:47:51.231Z,18.6
2024-02-24T15:53:30.392Z,18.2
2024-02-24T15:59:09.436Z,17.8
2024-02-24T16:04:51.045Z,17.4
2024-02-24T16:10:32.996Z,17.1
2024-02-24T16:16:11.409Z,16.8
2024-02-24T16:21:53.888Z,16.5
2024-02-24T16:27:32.688Z,16.2
2024-02-24T16:32:59.083Z,15.9
2024-02-24T16:38:39.212Z,15.8
2024-02-24T16:44:18.174Z,15.6
2024-02-24T16:49:58.739Z,15.3
2024-02-24T16:55:22.587Z,15.1
2024-02-24T17:01:01.680Z,15
2024-02-24T17:06:41.296Z,14.8
2024-02-24T17:12:04.713Z,14.7
2024-02-24T17:17:14.118Z,14.6
2024-02-24T17:23:01.121Z,14.4
2024-02-24T17:28:40.287Z,14.3
2024-02-24T17:34:19.941Z,14.2
2024-02-24T17:39:43.716Z,14.1
2024-02-24T17:45:22.352Z,14.1
2024-02-24T17:51:01.874Z,14
2024-02-24T17:56:40.381Z,13.9
2024-02-24T18:02:15.804Z,14
2024-02-24T18:07:55.885Z,13.9
2024-02-24T18:13:18.695Z,13.9
2024-02-24T18:18:45.267Z,13.8
2024-02-24T18:24:12.169Z,13.8
2024-02-24T18:29:19.243Z,13.8
2024-02-24T18:34:59.392Z,13.9
2024-02-24T18:40:38.665Z,13.8
2024-02-24T18:46:05.387Z,13.8
2024-02-24T18:51:45.297Z,13.8
2024-02-24T18:57:24.194Z,13.8
2024-02-24T19:03:03.084Z,13.8
2024-02-24T19:08:26.624Z,13.8
2024-02-24T19:13:50.228Z,13.8
2024-02-24T19:19:18.395Z,13.8
2024-02-24T19:25:00.346Z,13.8
2024-02-24T19:30:39.104Z,13.8
2024-02-24T19:36:18.507Z,13.9
2024-02-24T19:42:16.426Z,13.9
2024-02-24T19:47:55.160Z,13.9
2024-02-24T19:53:34.882Z,13.9
2024-02-24T19:59:21.662Z,13.9
2024-02-24T20:05:00.753Z,13.9
2024-02-24T20:10:40.922Z,13.9
2024-02-24T20:16:04.030Z,13.9
2024-02-24T20:21:44.131Z,13.9
2024-02-24T20:27:22.414Z,13.8
2024-02-24T20:33:02.202Z,13.8
2024-02-24T20:38:35.279Z,13.9
2024-02-24T20:44:14.760Z,13.8
2024-02-24T20:49:53.681Z,13.8
2024-02-24T20:55:17.026Z,13.8
2024-02-24T21:00:55.735Z,13.8
2024-02-24T21:06:36.944Z,13.8
2024-02-24T21:12:17.892Z,13.8
2024-02-24T21:17:56.897Z,13.7
2024-02-24T21:23:40.085Z,13.7
2024-02-24T21:29:19.231Z,13.6
2024-02-24T21:35:03.411Z,13.6
2024-02-24T21:40:41.648Z,13.6
2024-02-24T21:46:20.152Z,13.6
2024-02-24T21:52:00.524Z,13.6
2024-02-24T21:57:39.314Z,13.5
2024-02-24T22:03:18.651Z,13.4
2024-02-24T22:08:58.502Z,13.4
2024-02-24T22:14:37.674Z,13.4
2024-02-24T22:20:20.408Z,13.3
2024-02-24T22:26:01.216Z,13.2
2024-02-24T22:31:54.298Z,13.2
2024-02-24T22:37:36.373Z,13.1
2024-02-24T22:42:59.584Z,13
2024-02-24T22:48:39.940Z,13
2024-02-24T22:54:18.526Z,13
2024-02-24T22:59:45.945Z,12.9
2024-02-24T23:05:09.520Z,12.8
2024-02-24T23:10:33.464Z,12.7
2024-02-24T23:16:07.486Z,12.6
2024-02-24T23:21:31.893Z,12.5
2024-02-24T23:27:10.624Z,12.4
2024-02-24T23:32:49.298Z,12.4
2024-02-24T23:38:30.705Z,12.3
2024-02-24T23:44:13.722Z,12.3
2024-02-24T23:49:53.589Z,12.3
2024-02-24T23:55:32.139Z,12.3
